sensor_id;sensor_type;location;lat;lon;timestamp;temperature;humidity
30534;DHT22;17318;52.390;9.754;2022-12-07T00:01:13;7.10;99.90
30534;DHT22;17318;52.390;9.754;2022-12-07T00:03:40;7.20;99.90
30534;DHT22;17318;52.390;9.754;2022-12-07T00:06:07;7.10;99.90
30534;DHT22;17318;52.390;9.754;2022-12-07T00:08:34;7.20;99.90
30534;DHT22;17318;52.390;9.754;2022-12-07T00:11:07;7.20;99.90
30534;DHT22;17318;52.390;9.754;2022-12-07T00:13:34;7.20;99.90
30534;DHT22;17318;52.390;9.754;2022-12-07T00:16:05;7.10;99.90
30534;DHT22;17318;52.390;9.754;2022-12-07T00:18:31;7.20;99.90
30534;DHT22;17318;52.390;9.754;2022-12-07T00:21:15;7.20;99.90
30534;DHT22;17318;52.390;9.754;2022-12-07T00:23:42;7.20;99.90
30534;DHT22;17318;52.390;9.754;2022-12-07T00:26:43;7.30;99.90
30534;DHT22;17318;52.390;9.754;2022-12-07T00:29:05;7.20;99.90
30534;DHT22;17318;52.390;9.754;2022-12-07T00:31:34;7.30;99.90
30534;DHT22;17318;52.390;9.754;2022-12-07T00:34:01;7.20;99.90
30534;DHT22;17318;52.390;9.754;2022-12-07T00:36:27;7.20;99.90
30534;DHT22;17318;52.390;9.754;2022-12-07T00:38:54;7.20;99.90
30534;DHT22;17318;52.390;9.754;2022-12-07T00:41:22;7.20;99.90
30534;DHT22;17318;52.390;9.754;2022-12-07T00:43:49;7.20;99.90
30534;DHT22;17318;52.390;9.754;2022-12-07T00:46:16;7.20;99.90
30534;DHT22;17318;52.390;9.754;2022-12-07T00:48:43;7.20;99.90
30534;DHT22;17318;52.390;9.754;2022-12-07T00:51:11;7.10;99.90
30534;DHT22;17318;52.390;9.754;2022-12-07T00:53:37;7.30;99.90
30534;DHT22;17318;52.390;9.754;2022-12-07T00:56:16;7.20;99.90
30534;DHT22;17318;52.390;9.754;2022-12-07T00:58:41;7.20;99.90
30534;DHT22;17318;52.390;9.754;2022-12-07T01:01:08;7.10;99.90
30534;DHT22;17318;52.390;9.754;2022-12-07T01:03:34;7.10;99.90
30534;DHT22;17318;52.390;9.754;2022-12-07T01:06:02;7.20;99.90
30534;DHT22;17318;52.390;9.754;2022-12-07T01:08:28;7.10;99.90
30534;DHT22;17318;52.390;9.754;2022-12-07T01:11:01;7.20;99.90
30534;DHT22;17318;52.390;9.754;2022-12-07T01:13:28;7.10;99.90
30534;DHT22;17318;52.390;9.754;2022-12-07T01:15:57;7.20;99.90
30534;DHT22;17318;52.390;9.754;2022-12-07T01:18:26;7.20;99.90
30534;DHT22;17318;52.390;9.754;2022-12-07T01:21:01;7.00;99.90
30534;DHT22;17318;52.390;9.754;2022-12-07T01:23:28;7.00;99.90
30534;DHT22;17318;52.390;9.754;2022-12-07T01:25:58;7.10;99.90
30534;DHT22;17318;52.390;9.754;2022-12-07T01:28:24;7.10;99.90
30534;DHT22;17318;52.390;9.754;2022-12-07T01:31:01;7.20;99.90
30534;DHT22;17318;52.390;9.754;2022-12-07T01:33:29;6.90;99.90
30534;DHT22;17318;52.390;9.754;2022-12-07T01:36:07;6.90;99.90
30534;DHT22;17318;52.390;9.754;2022-12-07T01:38:34;7.00;99.90
30534;DHT22;17318;52.390;9.754;2022-12-07T01:41:01;6.90;99.90
30534;DHT22;17318;52.390;9.754;2022-12-07T01:43:30;6.80;99.90
30534;DHT22;17318;52.390;9.754;2022-12-07T01:45:56;6.90;99.90
30534;DHT22;17318;52.390;9.754;2022-12-07T01:48:38;7.10;99.90
30534;DHT22;17318;52.390;9.754;2022-12-07T01:51:09;7.10;99.90
30534;DHT22;17318;52.390;9.754;2022-12-07T01:53:40;7.00;99.90
30534;DHT22;17318;52.390;9.754;2022-12-07T01:56:08;7.00;99.90
30534;DHT22;17318;52.390;9.754;2022-12-07T01:58:36;7.00;99.90
30534;DHT22;17318;52.390;9.754;2022-12-07T02:01:02;7.00;99.90
30534;DHT22;17318;52.390;9.754;2022-12-07T02:03:36;7.10;99.90
30534;DHT22;17318;52.390;9.754;2022-12-07T02:06:04;7.10;99.90
30534;DHT22;17318;52.390;9.754;2022-12-07T02:08:30;7.20;99.90
30534;DHT22;17318;52.390;9.754;2022-12-07T02:10:56;7.10;99.90
30534;DHT22;17318;52.390;9.754;2022-12-07T02:13:28;6.80;99.90
30534;DHT22;17318;52.390;9.754;2022-12-07T02:21:36;6.80;99.90
30534;DHT22;17318;52.390;9.754;2022-12-07T02:35:15;6.80;99.90
30534;DHT22;17318;52.390;9.754;2022-12-07T02:40:29;6.70;99.90
30534;DHT22;17318;52.390;9.754;2022-12-07T02:43:16;6.70;99.90
30534;DHT22;17318;52.390;9.754;2022-12-07T02:45:44;6.60;99.90
30534;DHT22;17318;52.390;9.754;2022-12-07T02:48:12;6.70;99.90
30534;DHT22;17318;52.390;9.754;2022-12-07T02:50:39;6.50;99.90
30534;DHT22;17318;52.390;9.754;2022-12-07T02:55:57;6.60;99.90
30534;DHT22;17318;52.390;9.754;2022-12-07T03:03:42;6.60;99.90
30534;DHT22;17318;52.390;9.754;2022-12-07T03:06:22;6.50;99.90
30534;DHT22;17318;52.390;9.754;2022-12-07T03:08:57;6.60;99.90
30534;DHT22;17318;52.390;9.754;2022-12-07T03:11:45;6.50;99.90
30534;DHT22;17318;52.390;9.754;2022-12-07T03:14:31;6.50;99.90
30534;DHT22;17318;52.390;9.754;2022-12-07T03:17:14;6.50;99.90
30534;DHT22;17318;52.390;9.754;2022-12-07T03:19:43;6.50;99.90
30534;DHT22;17318;52.390;9.754;2022-12-07T03:22:12;6.60;99.90
30534;DHT22;17318;52.390;9.754;2022-12-07T03:24:51;6.60;99.90
30534;DHT22;17318;52.390;9.754;2022-12-07T03:27:27;6.50;99.90
30534;DHT22;17318;52.390;9.754;2022-12-07T03:29:59;6.50;99.90
30534;DHT22;17318;52.390;9.754;2022-12-07T03:35:09;6.60;99.90
30534;DHT22;17318;52.390;9.754;2022-12-07T03:37:47;6.40;99.90
30534;DHT22;17318;52.390;9.754;2022-12-07T03:40:37;6.40;99.90
30534;DHT22;17318;52.390;9.754;2022-12-07T03:43:05;6.40;99.90
30534;DHT22;17318;52.390;9.754;2022-12-07T03:45:43;6.40;99.90
30534;DHT22;17318;52.390;9.754;2022-12-07T03:51:46;6.60;99.90
30534;DHT22;17318;52.390;9.754;2022-12-07T03:54:30;6.60;99.90
30534;DHT22;17318;52.390;9.754;2022-12-07T03:56:57;6.60;99.90
30534;DHT22;17318;52.390;9.754;2022-12-07T03:59:24;6.60;99.90
30534;DHT22;17318;52.390;9.754;2022-12-07T04:01:57;6.70;99.90
30534;DHT22;17318;52.390;9.754;2022-12-07T04:04:24;6.80;99.90
30534;DHT22;17318;52.390;9.754;2022-12-07T04:06:51;6.80;99.90
30534;DHT22;17318;52.390;9.754;2022-12-07T04:09:17;6.70;99.90
30534;DHT22;17318;52.390;9.754;2022-12-07T04:11:43;6.60;99.90
30534;DHT22;17318;52.390;9.754;2022-12-07T04:14:09;6.50;99.90
30534;DHT22;17318;52.390;9.754;2022-12-07T04:16:45;6.70;99.90
30534;DHT22;17318;52.390;9.754;2022-12-07T04:19:11;6.70;99.90
30534;DHT22;17318;52.390;9.754;2022-12-07T04:21:37;6.70;99.90
30534;DHT22;17318;52.390;9.754;2022-12-07T04:24:04;6.60;99.90
30534;DHT22;17318;52.390;9.754;2022-12-07T04:26:29;6.50;99.90
30534;DHT22;17318;52.390;9.754;2022-12-07T04:28:55;6.50;99.90
30534;DHT22;17318;52.390;9.754;2022-12-07T04:31:20;6.40;99.90
30534;DHT22;17318;52.390;9.754;2022-12-07T04:33:46;6.40;99.90
30534;DHT22;17318;52.390;9.754;2022-12-07T04:36:12;6.40;99.90
30534;DHT22;17318;52.390;9.754;2022-12-07T04:38:37;6.50;99.90
30534;DHT22;17318;52.390;9.754;2022-12-07T04:41:07;6.50;99.90
30534;DHT22;17318;52.390;9.754;2022-12-07T04:43:34;6.50;99.90
30534;DHT22;17318;52.390;9.754;2022-12-07T04:46:00;6.60;99.90
30534;DHT22;17318;52.390;9.754;2022-12-07T04:48:26;6.50;99.90
30534;DHT22;17318;52.390;9.754;2022-12-07T04:50:51;6.50;99.90
30534;DHT22;17318;52.390;9.754;2022-12-07T04:53:17;6.60;99.90
30534;DHT22;17318;52.390;9.754;2022-12-07T04:55:44;6.60;99.90
30534;DHT22;17318;52.390;9.754;2022-12-07T04:58:10;6.40;99.90
30534;DHT22;17318;52.390;9.754;2022-12-07T05:00:36;6.40;99.90
30534;DHT22;17318;52.390;9.754;2022-12-07T05:03:01;6.40;99.90
30534;DHT22;17318;52.390;9.754;2022-12-07T05:05:27;6.40;99.90
30534;DHT22;17318;52.390;9.754;2022-12-07T05:07:53;6.30;99.90
30534;DHT22;17318;52.390;9.754;2022-12-07T05:10:19;6.20;99.90
30534;DHT22;17318;52.390;9.754;2022-12-07T05:12:45;6.30;99.90
30534;DHT22;17318;52.390;9.754;2022-12-07T05:15:12;6.40;99.90
30534;DHT22;17318;52.390;9.754;2022-12-07T05:17:38;6.40;99.90
30534;DHT22;17318;52.390;9.754;2022-12-07T05:20:04;6.30;99.90
30534;DHT22;17318;52.390;9.754;2022-12-07T05:22:30;6.40;99.90
30534;DHT22;17318;52.390;9.754;2022-12-07T05:24:55;6.40;99.90
30534;DHT22;17318;52.390;9.754;2022-12-07T05:27:21;6.40;99.90
30534;DHT22;17318;52.390;9.754;2022-12-07T05:29:47;6.40;99.90
30534;DHT22;17318;52.390;9.754;2022-12-07T05:32:14;6.60;99.90
30534;DHT22;17318;52.390;9.754;2022-12-07T05:34:40;6.50;99.90
30534;DHT22;17318;52.390;9.754;2022-12-07T05:37:05;6.50;99.90
30534;DHT22;17318;52.390;9.754;2022-12-07T05:39:31;6.30;99.90
30534;DHT22;17318;52.390;9.754;2022-12-07T05:41:57;6.30;99.90
30534;DHT22;17318;52.390;9.754;2022-12-07T05:44:38;6.40;99.90
30534;DHT22;17318;52.390;9.754;2022-12-07T05:47:04;6.50;99.90
30534;DHT22;17318;52.390;9.754;2022-12-07T05:49:30;6.50;99.90
30534;DHT22;17318;52.390;9.754;2022-12-07T05:51:56;6.30;99.90
30534;DHT22;17318;52.390;9.754;2022-12-07T05:54:22;6.40;99.90
30534;DHT22;17318;52.390;9.754;2022-12-07T05:56:47;6.30;99.90
30534;DHT22;17318;52.390;9.754;2022-12-07T05:59:14;6.20;99.90
30534;DHT22;17318;52.390;9.754;2022-12-07T06:01:51;6.30;99.90
30534;DHT22;17318;52.390;9.754;2022-12-07T06:04:17;6.20;99.90
30534;DHT22;17318;52.390;9.754;2022-12-07T06:06:43;6.20;99.90
30534;DHT22;17318;52.390;9.754;2022-12-07T06:09:09;6.30;99.90
30534;DHT22;17318;52.390;9.754;2022-12-07T06:11:35;6.20;99.90
30534;DHT22;17318;52.390;9.754;2022-12-07T06:14:19;6.20;99.90
30534;DHT22;17318;52.390;9.754;2022-12-07T06:16:46;6.30;99.90
30534;DHT22;17318;52.390;9.754;2022-12-07T06:19:12;6.20;99.90
30534;DHT22;17318;52.390;9.754;2022-12-07T06:21:37;6.30;99.90
30534;DHT22;17318;52.390;9.754;2022-12-07T06:24:04;6.30;99.90
30534;DHT22;17318;52.390;9.754;2022-12-07T06:26:30;6.40;99.90
30534;DHT22;17318;52.390;9.754;2022-12-07T06:28:55;6.40;99.90
30534;DHT22;17318;52.390;9.754;2022-12-07T06:31:21;6.40;99.90
30534;DHT22;17318;52.390;9.754;2022-12-07T06:33:47;6.40;99.90
30534;DHT22;17318;52.390;9.754;2022-12-07T06:36:13;6.40;99.90
30534;DHT22;17318;52.390;9.754;2022-12-07T06:38:39;6.50;99.90
30534;DHT22;17318;52.390;9.754;2022-12-07T06:41:05;6.40;99.90
30534;DHT22;17318;52.390;9.754;2022-12-07T06:43:32;6.40;99.90
30534;DHT22;17318;52.390;9.754;2022-12-07T06:45:58;6.30;99.90
30534;DHT22;17318;52.390;9.754;2022-12-07T06:48:23;6.10;99.90
30534;DHT22;17318;52.390;9.754;2022-12-07T06:50:49;6.20;99.90
30534;DHT22;17318;52.390;9.754;2022-12-07T06:53:15;6.20;99.90
30534;DHT22;17318;52.390;9.754;2022-12-07T06:55:41;6.10;99.90
30534;DHT22;17318;52.390;9.754;2022-12-07T06:58:07;6.10;99.90
30534;DHT22;17318;52.390;9.754;2022-12-07T07:00:32;6.10;99.90
30534;DHT22;17318;52.390;9.754;2022-12-07T07:03:00;6.10;99.90
30534;DHT22;17318;52.390;9.754;2022-12-07T07:05:26;6.10;99.90
30534;DHT22;17318;52.390;9.754;2022-12-07T07:07:52;6.10;99.90
30534;DHT22;17318;52.390;9.754;2022-12-07T07:10:17;6.20;99.90
30534;DHT22;17318;52.390;9.754;2022-12-07T07:12:43;6.30;99.90
30534;DHT22;17318;52.390;9.754;2022-12-07T07:15:09;6.30;99.90
30534;DHT22;17318;52.390;9.754;2022-12-07T07:17:35;6.20;99.90
30534;DHT22;17318;52.390;9.754;2022-12-07T07:20:01;6.30;99.90
30534;DHT22;17318;52.390;9.754;2022-12-07T07:22:26;6.30;99.90
30534;DHT22;17318;52.390;9.754;2022-12-07T07:24:52;6.40;99.90
30534;DHT22;17318;52.390;9.754;2022-12-07T07:27:18;6.30;99.90
30534;DHT22;17318;52.390;9.754;2022-12-07T07:29:43;6.30;99.90
30534;DHT22;17318;52.390;9.754;2022-12-07T07:32:09;6.30;99.90
30534;DHT22;17318;52.390;9.754;2022-12-07T07:34:35;6.30;99.90
30534;DHT22;17318;52.390;9.754;2022-12-07T07:37:01;6.30;99.90
30534;DHT22;17318;52.390;9.754;2022-12-07T07:39:26;6.30;99.90
30534;DHT22;17318;52.390;9.754;2022-12-07T07:41:52;6.40;99.90
30534;DHT22;17318;52.390;9.754;2022-12-07T07:44:19;6.40;99.90
30534;DHT22;17318;52.390;9.754;2022-12-07T07:46:44;6.40;99.90
30534;DHT22;17318;52.390;9.754;2022-12-07T07:49:10;6.40;99.90
30534;DHT22;17318;52.390;9.754;2022-12-07T07:51:36;6.50;99.90
30534;DHT22;17318;52.390;9.754;2022-12-07T07:54:03;6.50;99.90
30534;DHT22;17318;52.390;9.754;2022-12-07T07:56:29;6.40;99.90
30534;DHT22;17318;52.390;9.754;2022-12-07T07:58:55;6.50;99.90
30534;DHT22;17318;52.390;9.754;2022-12-07T08:01:21;6.50;99.90
30534;DHT22;17318;52.390;9.754;2022-12-07T08:03:47;6.50;99.90
30534;DHT22;17318;52.390;9.754;2022-12-07T08:06:13;6.50;99.90
30534;DHT22;17318;52.390;9.754;2022-12-07T08:08:39;6.40;99.90
30534;DHT22;17318;52.390;9.754;2022-12-07T08:11:06;6.60;99.90
30534;DHT22;17318;52.390;9.754;2022-12-07T08:13:32;6.60;99.90
30534;DHT22;17318;52.390;9.754;2022-12-07T08:15:58;6.60;99.90
30534;DHT22;17318;52.390;9.754;2022-12-07T08:18:28;6.60;99.90
30534;DHT22;17318;52.390;9.754;2022-12-07T08:20:59;6.60;99.90
30534;DHT22;17318;52.390;9.754;2022-12-07T08:23:26;6.40;99.90
30534;DHT22;17318;52.390;9.754;2022-12-07T08:25:52;6.40;99.90
30534;DHT22;17318;52.390;9.754;2022-12-07T08:28:18;6.50;99.90
30534;DHT22;17318;52.390;9.754;2022-12-07T08:30:43;6.30;99.90
30534;DHT22;17318;52.390;9.754;2022-12-07T08:33:09;6.40;99.90
30534;DHT22;17318;52.390;9.754;2022-12-07T08:35:35;6.50;99.90
30534;DHT22;17318;52.390;9.754;2022-12-07T08:38:02;6.60;99.90
30534;DHT22;17318;52.390;9.754;2022-12-07T08:40:28;6.60;99.90
30534;DHT22;17318;52.390;9.754;2022-12-07T08:42:54;6.60;99.90
30534;DHT22;17318;52.390;9.754;2022-12-07T08:45:21;6.60;99.90
30534;DHT22;17318;52.390;9.754;2022-12-07T08:50:50;6.70;99.90
30534;DHT22;17318;52.390;9.754;2022-12-07T08:53:16;6.70;99.90
30534;DHT22;17318;52.390;9.754;2022-12-07T08:55:46;6.50;99.90
30534;DHT22;17318;52.390;9.754;2022-12-07T08:58:12;6.70;99.90
30534;DHT22;17318;52.390;9.754;2022-12-07T09:00:38;6.60;99.90
30534;DHT22;17318;52.390;9.754;2022-12-07T09:03:04;6.60;99.90
30534;DHT22;17318;52.390;9.754;2022-12-07T09:05:29;6.60;99.90
30534;DHT22;17318;52.390;9.754;2022-12-07T09:07:57;6.60;99.90
30534;DHT22;17318;52.390;9.754;2022-12-07T09:10:24;6.60;99.90
30534;DHT22;17318;52.390;9.754;2022-12-07T09:12:51;6.60;99.90
30534;DHT22;17318;52.390;9.754;2022-12-07T09:15:17;6.50;99.90
30534;DHT22;17318;52.390;9.754;2022-12-07T09:17:43;6.60;99.90
30534;DHT22;17318;52.390;9.754;2022-12-07T09:20:09;6.70;99.90
30534;DHT22;17318;52.390;9.754;2022-12-07T09:22:35;6.70;99.90
30534;DHT22;17318;52.390;9.754;2022-12-07T09:25:01;6.60;99.90
30534;DHT22;17318;52.390;9.754;2022-12-07T09:27:28;6.60;99.90
30534;DHT22;17318;52.390;9.754;2022-12-07T09:29:54;6.70;99.90
30534;DHT22;17318;52.390;9.754;2022-12-07T09:32:20;6.70;99.90
30534;DHT22;17318;52.390;9.754;2022-12-07T09:34:45;6.80;99.90
30534;DHT22;17318;52.390;9.754;2022-12-07T09:37:11;6.60;99.90
30534;DHT22;17318;52.390;9.754;2022-12-07T09:39:40;6.50;99.90
30534;DHT22;17318;52.390;9.754;2022-12-07T09:42:07;6.60;99.90
30534;DHT22;17318;52.390;9.754;2022-12-07T09:44:34;6.60;99.90
30534;DHT22;17318;52.390;9.754;2022-12-07T09:47:00;6.60;99.90
30534;DHT22;17318;52.390;9.754;2022-12-07T09:49:29;6.80;99.90
30534;DHT22;17318;52.390;9.754;2022-12-07T09:54:27;7.00;99.90
30534;DHT22;17318;52.390;9.754;2022-12-07T09:56:53;7.20;99.90
30534;DHT22;17318;52.390;9.754;2022-12-07T09:59:18;7.10;99.90
30534;DHT22;17318;52.390;9.754;2022-12-07T10:01:46;7.20;99.90
30534;DHT22;17318;52.390;9.754;2022-12-07T10:04:22;7.10;99.90
30534;DHT22;17318;52.390;9.754;2022-12-07T10:06:48;7.10;99.90
30534;DHT22;17318;52.390;9.754;2022-12-07T10:09:16;7.20;99.90
30534;DHT22;17318;52.390;9.754;2022-12-07T10:12:08;7.20;99.90
30534;DHT22;17318;52.390;9.754;2022-12-07T10:14:52;7.40;99.90
30534;DHT22;17318;52.390;9.754;2022-12-07T10:19:51;7.80;99.90
30534;DHT22;17318;52.390;9.754;2022-12-07T10:22:17;7.70;99.90
30534;DHT22;17318;52.390;9.754;2022-12-07T10:24:45;7.70;99.90
30534;DHT22;17318;52.390;9.754;2022-12-07T10:27:30;7.60;99.90
30534;DHT22;17318;52.390;9.754;2022-12-07T10:29:57;7.50;99.90
30534;DHT22;17318;52.390;9.754;2022-12-07T10:32:33;7.10;99.90
30534;DHT22;17318;52.390;9.754;2022-12-07T10:35:23;7.10;99.90
30534;DHT22;17318;52.390;9.754;2022-12-07T10:37:50;7.10;99.90
30534;DHT22;17318;52.390;9.754;2022-12-07T10:40:32;7.10;99.90
30534;DHT22;17318;52.390;9.754;2022-12-07T10:46:02;7.20;99.90
30534;DHT22;17318;52.390;9.754;2022-12-07T10:48:50;7.10;99.90
30534;DHT22;17318;52.390;9.754;2022-12-07T10:51:32;7.20;99.90
30534;DHT22;17318;52.390;9.754;2022-12-07T10:57:02;7.10;99.90
30534;DHT22;17318;52.390;9.754;2022-12-07T11:24:06;7.00;99.90
30534;DHT22;17318;52.390;9.754;2022-12-07T11:29:28;6.70;99.90
30534;DHT22;17318;52.390;9.754;2022-12-07T11:37:34;6.70;99.90
30534;DHT22;17318;52.390;9.754;2022-12-07T11:43:01;6.60;99.90
30534;DHT22;17318;52.390;9.754;2022-12-07T11:45:32;6.60;99.90
30534;DHT22;17318;52.390;9.754;2022-12-07T11:51:04;6.60;99.90
30534;DHT22;17318;52.390;9.754;2022-12-07T11:53:27;6.50;99.90
30534;DHT22;17318;52.390;9.754;2022-12-07T12:06:36;6.90;99.90
30534;DHT22;17318;52.390;9.754;2022-12-07T12:09:04;7.10;99.90
30534;DHT22;17318;52.390;9.754;2022-12-07T12:14:56;7.40;99.90
30534;DHT22;17318;52.390;9.754;2022-12-07T12:25:25;7.70;99.90
30534;DHT22;17318;52.390;9.754;2022-12-07T12:27:52;7.60;99.90
30534;DHT22;17318;52.390;9.754;2022-12-07T12:30:36;7.70;99.90
30534;DHT22;17318;52.390;9.754;2022-12-07T12:33:14;7.50;99.90
30534;DHT22;17318;52.390;9.754;2022-12-07T12:35:42;7.60;99.90
30534;DHT22;17318;52.390;9.754;2022-12-07T12:38:35;7.40;99.90
30534;DHT22;17318;52.390;9.754;2022-12-07T12:47:41;7.60;99.90
30534;DHT22;17318;52.390;9.754;2022-12-07T12:58:34;7.70;99.90
30534;DHT22;17318;52.390;9.754;2022-12-07T13:04:01;7.60;99.90
30534;DHT22;17318;52.390;9.754;2022-12-07T13:08:55;7.60;99.90
30534;DHT22;17318;52.390;9.754;2022-12-07T13:11:41;7.40;99.90
30534;DHT22;17318;52.390;9.754;2022-12-07T13:14:55;7.40;99.90
30534;DHT22;17318;52.390;9.754;2022-12-07T13:19:57;7.70;99.90
30534;DHT22;17318;52.390;9.754;2022-12-07T13:27:37;7.60;99.90
30534;DHT22;17318;52.390;9.754;2022-12-07T13:30:17;7.50;99.90
30534;DHT22;17318;52.390;9.754;2022-12-07T13:32:54;7.40;99.90
30534;DHT22;17318;52.390;9.754;2022-12-07T13:35:30;7.60;99.90
30534;DHT22;17318;52.390;9.754;2022-12-07T13:37:57;7.60;99.90
30534;DHT22;17318;52.390;9.754;2022-12-07T13:40:24;7.70;99.90
30534;DHT22;17318;52.390;9.754;2022-12-07T13:43:00;7.70;99.90
30534;DHT22;17318;52.390;9.754;2022-12-07T13:45:28;7.70;99.70
30534;DHT22;17318;52.390;9.754;2022-12-07T13:48:31;7.50;99.90
30534;DHT22;17318;52.390;9.754;2022-12-07T13:50:59;7.50;99.90
30534;DHT22;17318;52.390;9.754;2022-12-07T13:53:26;7.50;99.90
30534;DHT22;17318;52.390;9.754;2022-12-07T13:55:59;7.40;99.90
30534;DHT22;17318;52.390;9.754;2022-12-07T13:58:27;7.40;99.90
30534;DHT22;17318;52.390;9.754;2022-12-07T14:00:55;7.60;99.90
30534;DHT22;17318;52.390;9.754;2022-12-07T14:03:35;7.60;99.90
30534;DHT22;17318;52.390;9.754;2022-12-07T14:08:34;7.60;99.90
30534;DHT22;17318;52.390;9.754;2022-12-07T14:11:00;7.60;99.90
30534;DHT22;17318;52.390;9.754;2022-12-07T14:13:35;7.60;99.90
30534;DHT22;17318;52.390;9.754;2022-12-07T14:16:02;7.50;99.90
30534;DHT22;17318;52.390;9.754;2022-12-07T14:18:39;7.60;99.90
30534;DHT22;17318;52.390;9.754;2022-12-07T14:21:22;7.60;99.70
30534;DHT22;17318;52.390;9.754;2022-12-07T14:24:09;7.40;99.90
30534;DHT22;17318;52.390;9.754;2022-12-07T14:26:35;7.50;99.90
30534;DHT22;17318;52.390;9.754;2022-12-07T14:31:45;7.30;99.90
30534;DHT22;17318;52.390;9.754;2022-12-07T14:34:14;7.30;99.90
30534;DHT22;17318;52.390;9.754;2022-12-07T14:36:40;7.50;99.90
30534;DHT22;17318;52.390;9.754;2022-12-07T14:39:06;7.40;99.90
30534;DHT22;17318;52.390;9.754;2022-12-07T14:41:32;7.30;99.90
30534;DHT22;17318;52.390;9.754;2022-12-07T14:44:17;7.30;99.90
30534;DHT22;17318;52.390;9.754;2022-12-07T14:46:43;7.30;99.90
30534;DHT22;17318;52.390;9.754;2022-12-07T14:49:09;7.20;99.90
30534;DHT22;17318;52.390;9.754;2022-12-07T14:51:38;7.40;99.90
30534;DHT22;17318;52.390;9.754;2022-12-07T14:54:06;7.40;99.90
30534;DHT22;17318;52.390;9.754;2022-12-07T14:56:32;7.30;99.90
30534;DHT22;17318;52.390;9.754;2022-12-07T14:58:57;7.20;99.90
30534;DHT22;17318;52.390;9.754;2022-12-07T15:01:23;7.00;99.90
30534;DHT22;17318;52.390;9.754;2022-12-07T15:03:49;7.10;99.90
30534;DHT22;17318;52.390;9.754;2022-12-07T15:06:17;6.90;99.90
30534;DHT22;17318;52.390;9.754;2022-12-07T15:08:43;7.10;99.90
30534;DHT22;17318;52.390;9.754;2022-12-07T15:11:16;7.20;99.90
30534;DHT22;17318;52.390;9.754;2022-12-07T15:13:42;7.10;99.90
30534;DHT22;17318;52.390;9.754;2022-12-07T15:16:26;7.10;99.90
30534;DHT22;17318;52.390;9.754;2022-12-07T15:18:52;7.20;99.90
30534;DHT22;17318;52.390;9.754;2022-12-07T15:21:18;7.30;99.90
30534;DHT22;17318;52.390;9.754;2022-12-07T15:23:43;7.20;99.90
30534;DHT22;17318;52.390;9.754;2022-12-07T15:26:11;7.20;99.90
30534;DHT22;17318;52.390;9.754;2022-12-07T15:28:37;7.10;99.90
30534;DHT22;17318;52.390;9.754;2022-12-07T15:31:02;7.20;99.90
30534;DHT22;17318;52.390;9.754;2022-12-07T15:33:28;7.20;99.90
30534;DHT22;17318;52.390;9.754;2022-12-07T15:35:54;7.20;99.90
30534;DHT22;17318;52.390;9.754;2022-12-07T15:38:19;7.00;99.90
30534;DHT22;17318;52.390;9.754;2022-12-07T15:40:48;7.00;99.90
30534;DHT22;17318;52.390;9.754;2022-12-07T15:43:14;7.10;99.90
30534;DHT22;17318;52.390;9.754;2022-12-07T15:45:58;7.10;99.90
30534;DHT22;17318;52.390;9.754;2022-12-07T15:48:24;7.10;99.90
30534;DHT22;17318;52.390;9.754;2022-12-07T15:50:50;7.10;99.90
30534;DHT22;17318;52.390;9.754;2022-12-07T15:53:17;7.00;99.90
30534;DHT22;17318;52.390;9.754;2022-12-07T15:55:42;7.10;99.90
30534;DHT22;17318;52.390;9.754;2022-12-07T15:58:08;7.10;99.90
30534;DHT22;17318;52.390;9.754;2022-12-07T16:00:34;6.90;99.90
30534;DHT22;17318;52.390;9.754;2022-12-07T16:02:59;6.90;99.90
30534;DHT22;17318;52.390;9.754;2022-12-07T16:05:25;6.90;99.90
30534;DHT22;17318;52.390;9.754;2022-12-07T16:07:51;7.00;99.90
30534;DHT22;17318;52.390;9.754;2022-12-07T16:10:17;7.00;99.90
30534;DHT22;17318;52.390;9.754;2022-12-07T16:12:42;7.00;99.90
30534;DHT22;17318;52.390;9.754;2022-12-07T16:15:09;7.00;99.90
30534;DHT22;17318;52.390;9.754;2022-12-07T16:17:34;7.10;99.90
30534;DHT22;17318;52.390;9.754;2022-12-07T16:20:00;6.90;99.90
30534;DHT22;17318;52.390;9.754;2022-12-07T16:22:26;7.00;99.90
30534;DHT22;17318;52.390;9.754;2022-12-07T16:24:52;6.90;99.90
30534;DHT22;17318;52.390;9.754;2022-12-07T16:27:17;7.10;99.90
30534;DHT22;17318;52.390;9.754;2022-12-07T16:29:43;7.10;99.90
30534;DHT22;17318;52.390;9.754;2022-12-07T16:32:09;7.10;99.90
30534;DHT22;17318;52.390;9.754;2022-12-07T16:34:34;7.10;99.90
30534;DHT22;17318;52.390;9.754;2022-12-07T16:37:00;7.20;99.90
30534;DHT22;17318;52.390;9.754;2022-12-07T16:39:26;7.40;99.90
30534;DHT22;17318;52.390;9.754;2022-12-07T16:41:51;7.20;99.90
30534;DHT22;17318;52.390;9.754;2022-12-07T16:44:18;7.30;99.90
30534;DHT22;17318;52.390;9.754;2022-12-07T16:46:44;7.30;99.90
30534;DHT22;17318;52.390;9.754;2022-12-07T16:49:16;7.40;99.90
30534;DHT22;17318;52.390;9.754;2022-12-07T16:51:42;7.40;99.90
30534;DHT22;17318;52.390;9.754;2022-12-07T16:54:12;7.40;99.90
30534;DHT22;17318;52.390;9.754;2022-12-07T16:56:38;7.40;99.90
30534;DHT22;17318;52.390;9.754;2022-12-07T16:59:04;7.40;99.90
30534;DHT22;17318;52.390;9.754;2022-12-07T17:01:30;7.40;99.90
30534;DHT22;17318;52.390;9.754;2022-12-07T17:03:58;7.40;99.90
30534;DHT22;17318;52.390;9.754;2022-12-07T17:06:26;7.30;99.90
30534;DHT22;17318;52.390;9.754;2022-12-07T17:08:53;7.30;99.90
30534;DHT22;17318;52.390;9.754;2022-12-07T17:11:28;7.30;99.90
30534;DHT22;17318;52.390;9.754;2022-12-07T17:13:54;7.30;99.90
30534;DHT22;17318;52.390;9.754;2022-12-07T17:16:38;7.20;99.90
30534;DHT22;17318;52.390;9.754;2022-12-07T17:19:05;7.30;99.90
30534;DHT22;17318;52.390;9.754;2022-12-07T17:21:31;7.40;99.90
30534;DHT22;17318;52.390;9.754;2022-12-07T17:24:01;7.40;99.90
30534;DHT22;17318;52.390;9.754;2022-12-07T17:26:28;7.40;99.90
30534;DHT22;17318;52.390;9.754;2022-12-07T17:28:54;7.40;99.90
30534;DHT22;17318;52.390;9.754;2022-12-07T17:31:21;7.30;99.90
30534;DHT22;17318;52.390;9.754;2022-12-07T17:33:47;7.40;99.90
30534;DHT22;17318;52.390;9.754;2022-12-07T17:38:44;7.60;99.70
30534;DHT22;17318;52.390;9.754;2022-12-07T17:41:16;7.60;99.50
30534;DHT22;17318;52.390;9.754;2022-12-07T17:44:04;7.50;99.30
30534;DHT22;17318;52.390;9.754;2022-12-07T17:46:30;7.40;99.10
30534;DHT22;17318;52.390;9.754;2022-12-07T17:48:57;7.40;99.30
30534;DHT22;17318;52.390;9.754;2022-12-07T17:51:23;7.40;99.30
30534;DHT22;17318;52.390;9.754;2022-12-07T17:54:08;7.30;99.30
30534;DHT22;17318;52.390;9.754;2022-12-07T17:56:35;7.10;99.40
30534;DHT22;17318;52.390;9.754;2022-12-07T17:59:01;7.00;99.50
30534;DHT22;17318;52.390;9.754;2022-12-07T18:01:27;7.00;99.70
30534;DHT22;17318;52.390;9.754;2022-12-07T18:03:52;7.00;99.70
30534;DHT22;17318;52.390;9.754;2022-12-07T18:06:18;7.00;99.80
30534;DHT22;17318;52.390;9.754;2022-12-07T18:08:44;7.00;99.80
30534;DHT22;17318;52.390;9.754;2022-12-07T18:11:09;6.90;99.80
30534;DHT22;17318;52.390;9.754;2022-12-07T18:13:35;6.80;99.90
30534;DHT22;17318;52.390;9.754;2022-12-07T18:16:09;6.70;99.90
30534;DHT22;17318;52.390;9.754;2022-12-07T18:18:35;6.80;99.90
30534;DHT22;17318;52.390;9.754;2022-12-07T18:21:07;6.80;99.90